Quail, Texas
Current Conditions -  °F | °C
As of 9:53 PM on Saturday 24 Jan 2015 (Local Time) from KCDS Reporting Station
Clear Clear  
Wind Chill: 37°   Ceiling: Unl
Heat Index: 43°   Visibility: 10mi
Dew Point: 34°   Wind: 10mph
Humidity: 71%   Direction: 260°W
Pressure: 29.98"   Gusts: NA
Location:  34.91°N, 100.4°W
Report Text: KCDS 250353Z AUTO 26009KT 10SM CLR 06/01 A2998 RMK AO2 SLP152 T00610011
Loading
Personal Weather Stations






























Interactive Weather Map New forecast layout! Learn more

10-Day Weather Forecast

Advertisements
Track Severe Weather on mobile